createdAt,value
2022-10-09T00:00:52.919Z,3.19
2022-10-09T00:05:59.191Z,4.05
2022-10-09T00:11:07.999Z,4.66
2022-10-09T00:16:13.270Z,4.53
2022-10-09T00:21:20.351Z,2.77
2022-10-09T00:26:26.676Z,2.65
2022-10-09T00:31:32.997Z,2.71
2022-10-09T00:36:39.303Z,2.88
2022-10-09T00:41:45.578Z,2.77
2022-10-09T00:46:52.018Z,2.93
2022-10-09T00:51:58.279Z,4.00
2022-10-09T00:57:04.544Z,2.50
2022-10-09T01:02:10.871Z,3.04
2022-10-09T01:07:17.003Z,3.13
2022-10-09T01:12:23.252Z,3.18
2022-10-09T01:17:30.724Z,4.61
2022-10-09T01:22:36.945Z,3.59
2022-10-09T01:27:43.282Z,5.55
2022-10-09T01:32:49.785Z,3.53
2022-10-09T01:37:55.578Z,3.69
2022-10-09T01:43:03.156Z,5.07
2022-10-09T01:48:08.423Z,2.95
2022-10-09T01:53:14.642Z,3.40
2022-10-09T01:58:20.874Z,3.28
2022-10-09T02:03:27.736Z,3.05
2022-10-09T02:08:34.070Z,4.48
2022-10-09T02:13:40.413Z,3.59
2022-10-09T02:18:49.578Z,2.89
2022-10-09T02:23:55.829Z,3.37
2022-10-09T02:29:02.723Z,3.06
2022-10-09T02:34:08.954Z,4.66
2022-10-09T02:39:15.251Z,3.13
2022-10-09T02:44:21.506Z,3.02
2022-10-09T02:49:27.713Z,2.94
2022-10-09T02:54:33.938Z,3.01
2022-10-09T02:59:40.244Z,4.72
2022-10-09T03:04:46.666Z,2.98
2022-10-09T03:09:53.065Z,2.92
2022-10-09T03:14:59.263Z,2.72
2022-10-09T03:20:05.472Z,3.05
2022-10-09T03:25:11.683Z,2.83
2022-10-09T03:30:17.904Z,3.47
2022-10-09T03:35:24.214Z,4.68
2022-10-09T03:40:30.422Z,4.99
2022-10-09T03:45:36.671Z,3.43
2022-10-09T03:50:43.022Z,4.97
2022-10-09T03:55:49.292Z,3.48
2022-10-09T04:00:55.646Z,3.40
2022-10-09T04:06:01.841Z,3.33
2022-10-09T04:11:08.331Z,3.61
2022-10-09T04:16:14.598Z,3.52
2022-10-09T04:21:21.640Z,5.03
2022-10-09T04:26:27.956Z,3.48
2022-10-09T04:31:34.491Z,4.58
2022-10-09T04:36:40.677Z,4.51
2022-10-09T04:41:46.883Z,2.98
2022-10-09T04:46:53.223Z,2.96
2022-10-09T04:51:59.411Z,5.05
2022-10-09T04:57:05.587Z,3.07
2022-10-09T05:02:11.940Z,4.60
2022-10-09T05:07:18.178Z,2.95
2022-10-09T05:12:24.467Z,2.86
2022-10-09T05:17:30.858Z,3.15
2022-10-09T05:22:37.061Z,2.92
2022-10-09T05:27:43.389Z,2.93
2022-10-09T05:32:49.948Z,4.72
2022-10-09T05:37:55.333Z,3.45
2022-10-09T05:43:03.464Z,4.69
2022-10-09T05:48:10.895Z,4.73
2022-10-09T05:53:17.186Z,2.89
2022-10-09T05:58:23.365Z,2.90
2022-10-09T06:03:29.667Z,3.03
2022-10-09T06:08:35.899Z,3.16
2022-10-09T06:13:42.155Z,3.22
2022-10-09T06:18:49.411Z,2.83
2022-10-09T06:23:54.123Z,2.84
2022-10-09T06:29:00.478Z,4.22
2022-10-09T06:34:06.742Z,3.13
2022-10-09T06:39:12.972Z,3.19
2022-10-09T06:44:19.219Z,4.36
2022-10-09T06:49:25.504Z,3.05
2022-10-09T06:54:31.715Z,3.40
2022-10-09T06:59:37.912Z,4.78
2022-10-09T07:04:44.230Z,5.36
2022-10-09T07:09:50.505Z,3.33
2022-10-09T07:14:56.751Z,3.59
2022-10-09T07:20:03.056Z,3.85
2022-10-09T07:25:11.724Z,5.53
2022-10-09T07:30:18.031Z,3.42
2022-10-09T07:35:24.279Z,3.76
2022-10-09T07:40:30.578Z,3.17
2022-10-09T07:45:37.984Z,3.04
2022-10-09T07:50:44.325Z,3.37
2022-10-09T07:55:51.569Z,3.02
2022-10-09T08:00:58.201Z,2.79
2022-10-09T08:06:04.502Z,3.89
2022-10-09T08:11:11.135Z,3.71
2022-10-09T08:16:18.661Z,2.63
2022-10-09T08:21:25.051Z,2.21
2022-10-09T08:26:31.555Z,2.18
2022-10-09T08:31:38.055Z,2.24
2022-10-09T08:36:44.392Z,3.16
2022-10-09T08:41:50.697Z,2.78
2022-10-09T08:46:58.168Z,2.04
2022-10-09T08:52:06.059Z,2.50
2022-10-09T08:57:11.434Z,2.73
2022-10-09T09:02:17.785Z,1.87
2022-10-09T09:07:24.583Z,1.95
2022-10-09T09:12:30.921Z,1.83
2022-10-09T09:17:39.025Z,2.99
2022-10-09T09:22:46.935Z,1.62
2022-10-09T09:27:52.461Z,1.52
2022-10-09T09:33:01.842Z,1.48
2022-10-09T09:38:10.990Z,1.49
2022-10-09T09:43:17.328Z,2.38
2022-10-09T09:48:23.643Z,2.00
2022-10-09T09:53:31.006Z,1.38
2022-10-09T09:58:37.325Z,1.91
2022-10-09T10:03:43.819Z,1.31
2022-10-09T10:08:50.117Z,1.19
2022-10-09T10:13:57.525Z,1.28
2022-10-09T10:19:06.242Z,1.09
2022-10-09T10:24:12.588Z,1.13
2022-10-09T10:29:20.351Z,1.13
2022-10-09T10:34:27.454Z,1.27
2022-10-09T10:39:33.859Z,1.01
2022-10-09T10:44:40.165Z,0.87
2022-10-09T10:49:47.391Z,0.97
2022-10-09T10:54:54.720Z,0.83
2022-10-09T11:00:01.021Z,1.52
2022-10-09T11:05:08.398Z,0.73
2022-10-09T11:10:16.103Z,1.08
2022-10-09T11:15:24.243Z,0.71
2022-10-09T11:20:32.147Z,0.88
2022-10-09T11:25:38.436Z,0.71
2022-10-09T11:30:44.743Z,0.65
2022-10-09T11:35:52.621Z,1.24
2022-10-09T11:41:00.695Z,0.67
2022-10-09T11:46:04.858Z,0.71
2022-10-09T11:51:11.223Z,0.76
2022-10-09T11:56:17.528Z,0.72
2022-10-09T12:01:23.884Z,0.70
2022-10-09T12:06:30.067Z,0.78
2022-10-09T12:11:40.582Z,1.14
2022-10-09T12:16:45.185Z,0.71
2022-10-09T12:21:52.423Z,0.62
2022-10-09T12:26:58.656Z,0.65
2022-10-09T12:32:05.036Z,0.77
2022-10-09T12:37:11.214Z,0.84
2022-10-09T12:42:17.737Z,0.77
2022-10-09T12:47:24.029Z,0.67
2022-10-09T12:52:30.320Z,0.74
2022-10-09T12:57:36.569Z,0.70
2022-10-09T13:02:42.934Z,0.99
2022-10-09T13:07:49.082Z,0.74
2022-10-09T13:12:55.418Z,0.74
2022-10-09T13:18:01.690Z,3.45
2022-10-09T13:23:08.025Z,0.67
2022-10-09T13:28:14.330Z,0.88
2022-10-09T13:33:20.551Z,1.18
2022-10-09T13:38:30.290Z,0.86
2022-10-09T13:43:34.139Z,1.08
2022-10-09T13:48:40.666Z,0.63
2022-10-09T13:53:47.405Z,0.69
2022-10-09T13:58:55.793Z,0.84
2022-10-09T14:04:01.132Z,0.90
2022-10-09T14:09:08.592Z,0.94
2022-10-09T14:14:14.867Z,0.84
2022-10-09T14:19:21.165Z,0.79
2022-10-09T14:24:27.431Z,0.76
2022-10-09T14:29:33.734Z,0.54
2022-10-09T14:34:46.968Z,0.77
2022-10-09T14:39:43.191Z,0.64
2022-10-09T14:44:49.803Z,0.76
2022-10-09T14:49:56.324Z,0.83
2022-10-09T14:55:06.478Z,0.76
2022-10-09T15:00:05.153Z,0.72
2022-10-09T15:05:11.385Z,1.03
2022-10-09T15:10:17.658Z,0.87
2022-10-09T15:15:26.134Z,0.81
2022-10-09T15:20:31.850Z,1.18
2022-10-09T15:25:38.185Z,0.73
2022-10-09T15:30:45.705Z,0.69
2022-10-09T15:35:52.158Z,0.76
2022-10-09T15:40:58.437Z,0.71
2022-10-09T15:46:04.681Z,0.80
2022-10-09T15:51:12.286Z,1.12
2022-10-09T15:56:19.648Z,0.97
2022-10-09T16:01:25.901Z,0.77
2022-10-09T16:06:33.489Z,0.95
2022-10-09T16:11:39.815Z,1.10
2022-10-09T16:16:46.125Z,1.04
2022-10-09T16:21:52.393Z,1.08
2022-10-09T16:26:58.682Z,1.28
2022-10-09T16:32:05.067Z,1.17
2022-10-09T16:37:11.294Z,0.99
2022-10-09T16:42:17.651Z,1.73
2022-10-09T16:47:24.139Z,1.08
2022-10-09T16:52:30.569Z,1.64
2022-10-09T16:57:38.188Z,1.10
2022-10-09T17:02:44.425Z,2.00
2022-10-09T17:07:51.003Z,1.10
2022-10-09T17:12:56.561Z,1.10
2022-10-09T17:18:02.884Z,0.89
2022-10-09T17:23:09.255Z,1.02
2022-10-09T17:28:15.688Z,0.78
2022-10-09T17:33:21.882Z,1.46
2022-10-09T17:38:29.341Z,1.58
2022-10-09T17:43:35.618Z,1.09
2022-10-09T17:48:42.395Z,1.00
2022-10-09T17:53:48.848Z,1.10
2022-10-09T17:58:55.192Z,1.61
2022-10-09T18:04:01.731Z,1.08
2022-10-09T18:09:08.046Z,1.25
2022-10-09T18:14:14.613Z,1.52
2022-10-09T18:19:21.395Z,1.77
2022-10-09T18:24:27.938Z,1.44
2022-10-09T18:29:34.362Z,1.18
2022-10-09T18:34:44.177Z,1.83
2022-10-09T18:39:48.265Z,1.53
2022-10-09T18:44:54.630Z,2.38
2022-10-09T18:50:01.986Z,2.19
2022-10-09T18:55:08.196Z,1.37
2022-10-09T19:00:14.532Z,1.77
2022-10-09T19:05:20.717Z,1.60
2022-10-09T19:10:26.976Z,1.68
2022-10-09T19:15:34.248Z,1.59
2022-10-09T19:20:40.545Z,2.14
2022-10-09T19:25:46.781Z,1.60
2022-10-09T19:30:53.157Z,1.52
2022-10-09T19:35:59.370Z,1.48
2022-10-09T19:41:07.419Z,2.42
2022-10-09T19:46:12.639Z,1.58
2022-10-09T19:51:19.010Z,1.55
2022-10-09T19:56:26.676Z,1.61
2022-10-09T20:01:33.087Z,1.61
2022-10-09T20:06:39.200Z,2.42
2022-10-09T20:11:45.546Z,1.54
2022-10-09T20:16:51.864Z,2.81
2022-10-09T20:21:58.154Z,1.75
2022-10-09T20:27:04.456Z,1.61
2022-10-09T20:32:10.703Z,1.54
2022-10-09T20:37:16.931Z,2.76
2022-10-09T20:42:23.124Z,1.48
2022-10-09T20:47:29.363Z,1.65
2022-10-09T20:52:35.639Z,1.67
2022-10-09T20:57:41.854Z,2.34
2022-10-09T21:02:48.370Z,1.61
2022-10-09T21:07:53.814Z,1.68
2022-10-09T21:13:00.137Z,1.72
2022-10-09T21:18:07.761Z,2.54
2022-10-09T21:23:14.652Z,1.67
2022-10-09T21:28:21.254Z,1.64
2022-10-09T21:33:27.415Z,1.64
2022-10-09T21:38:33.597Z,1.56
2022-10-09T21:43:39.824Z,1.41
2022-10-09T21:48:46.088Z,1.34
2022-10-09T21:53:52.264Z,1.99
2022-10-09T21:58:58.527Z,2.14
2022-10-09T22:04:04.728Z,1.46
2022-10-09T22:09:12.130Z,2.32
2022-10-09T22:14:19.259Z,1.76
2022-10-09T22:19:25.594Z,2.96
2022-10-09T22:24:31.867Z,1.84
2022-10-09T22:29:38.195Z,1.60
2022-10-09T22:34:44.505Z,2.88
2022-10-09T22:39:50.813Z,2.03
2022-10-09T22:44:57.059Z,2.48
2022-10-09T22:50:03.297Z,2.49
2022-10-09T22:55:09.497Z,2.28
2022-10-09T23:00:15.719Z,2.60
2022-10-09T23:05:21.955Z,3.68
2022-10-09T23:10:28.443Z,2.84
2022-10-09T23:15:34.719Z,2.76
2022-10-09T23:20:40.973Z,2.68
2022-10-09T23:25:49.022Z,2.42
2022-10-09T23:30:55.285Z,3.77
2022-10-09T23:36:01.483Z,2.37
2022-10-09T23:41:08.149Z,2.43
2022-10-09T23:46:14.381Z,2.44
2022-10-09T23:51:21.932Z,2.38
2022-10-09T23:56:28.241Z,2.60
